Time;durP1;ratioP1;P1;durP2;ratioP2;P2;SDS_P1;SDS_P2;PMS_P1;PMS_P2;Temp;Humidity;BMP_temperature;BMP_pressure;BME280_temperature;BME280_humidity;BME280_pressure;Samples;Min_cycle;Max_cycle;Signal;HPM_P1;HPM_P2
2022/08/29 00:01:02;;;;;;;4.75;4.25;;;23.00;99.90;;;;;;1896400;75;21600;-78
2022/08/29 00:03:57;;;;;;;4.92;4.53;;;23.10;99.90;;;;;;1887424;75;21206;-78
2022/08/29 00:06:48;;;;;;;4.70;4.30;;;23.10;99.90;;;;;;1901447;75;21169;-78
2022/08/29 00:09:39;;;;;;;4.80;4.10;;;23.10;99.90;;;;;;1890953;75;21047;-79
2022/08/29 00:12:31;;;;;;;5.00;4.50;;;23.00;99.90;;;;;;1896210;75;21080;-76
2022/08/29 00:15:23;;;;;;;4.92;4.40;;;23.00;99.90;;;;;;1892568;75;21146;-80
2022/08/29 00:18:15;;;;;;;5.10;4.60;;;23.00;99.90;;;;;;1891236;74;21176;-79
2022/08/29 00:21:07;;;;;;;5.58;4.47;;;23.00;99.90;;;;;;1901091;75;21653;-76
2022/08/29 00:26:38;;;;;;;5.55;4.80;;;22.90;99.90;;;;;;1933631;72;22269;-75
2022/08/29 00:29:30;;;;;;;6.45;4.65;;;22.90;99.90;;;;;;1900696;74;21102;-76
2022/08/29 00:32:21;;;;;;;4.97;4.58;;;22.80;99.90;;;;;;1898783;75;21125;-76
2022/08/29 00:35:14;;;;;;;4.85;4.45;;;22.70;99.90;;;;;;1918296;74;21103;-75
2022/08/29 00:38:09;;;;;;;6.80;4.40;;;22.70;99.90;;;;;;1890273;75;21050;-80
2022/08/29 00:41:05;;;;;;;4.83;4.42;;;22.70;99.90;;;;;;1895563;74;21092;-77
2022/08/29 00:44:04;;;;;;;4.87;4.47;;;22.70;99.90;;;;;;1884320;74;21545;-78
2022/08/29 00:46:58;;;;;;;5.60;4.33;;;22.60;99.90;;;;;;1902428;75;21124;-77
2022/08/29 00:49:59;;;;;;;4.65;4.25;;;22.70;99.90;;;;;;1899785;74;21613;-77
2022/08/29 00:52:59;;;;;;;6.05;4.85;;;22.70;99.90;;;;;;1909909;74;21103;-79
2022/08/29 00:55:51;;;;;;;8.33;5.10;;;22.70;99.90;;;;;;1910118;74;21150;-79
2022/08/29 00:58:45;;;;;;;5.20;4.70;;;22.70;99.90;;;;;;1911527;75;21110;-79
2022/08/29 01:01:37;;;;;;;4.90;4.40;;;22.70;99.90;;;;;;1898353;75;21057;-79
2022/08/29 01:04:28;;;;;;;5.08;4.58;;;22.70;99.90;;;;;;1907416;74;21134;-78
2022/08/29 01:07:20;;;;;;;4.90;4.40;;;22.70;99.90;;;;;;1910929;74;21094;-78
2022/08/29 01:12:14;;;;;;;5.20;4.78;;;22.60;99.90;;;;;;1899705;74;21039;-78
2022/08/29 01:13:09;;;;;;;5.50;4.67;;;22.60;99.90;;;;;;1906765;74;21313;-79
2022/08/29 01:16:02;;;;;;;5.08;4.58;;;22.60;99.90;;;;;;1907803;74;21631;-79
2022/08/29 01:21:43;;;;;;;4.70;4.30;;;22.60;99.90;;;;;;1938242;72;22221;-79
2022/08/29 01:27:15;;;;;;;4.78;4.20;;;22.50;99.90;;;;;;1937664;72;22168;-79
2022/08/29 01:30:08;;;;;;;4.78;4.37;;;22.50;99.90;;;;;;1894843;74;21101;-79
2022/08/29 01:32:59;;;;;;;4.45;4.00;;;22.60;99.90;;;;;;1902037;75;21130;-79
2022/08/29 01:35:50;;;;;;;5.85;4.67;;;22.50;99.90;;;;;;1914049;75;21099;-79
2022/08/29 01:38:42;;;;;;;4.92;4.50;;;22.40;99.90;;;;;;1904477;75;21116;-78
2022/08/29 01:41:34;;;;;;;4.87;4.47;;;22.40;99.90;;;;;;1910739;75;21112;-76
2022/08/29 01:44:25;;;;;;;4.60;4.20;;;22.40;99.90;;;;;;1905905;75;21154;-76
2022/08/29 01:47:17;;;;;;;4.78;4.12;;;22.30;99.90;;;;;;1891342;75;21621;-76
2022/08/29 01:50:11;;;;;;;4.45;4.15;;;22.20;99.90;;;;;;1892778;75;21124;-76
2022/08/29 01:53:02;;;;;;;5.05;4.55;;;22.20;99.90;;;;;;1917228;75;21063;-80
2022/08/29 01:55:53;;;;;;;5.45;4.95;;;22.20;99.90;;;;;;1909360;75;21049;-80
2022/08/29 01:58:45;;;;;;;4.70;4.30;;;22.20;99.90;;;;;;1894973;75;21079;-81
2022/08/29 02:01:38;;;;;;;5.00;4.60;;;22.20;99.90;;;;;;1909058;75;21109;-79
2022/08/29 02:04:30;;;;;;;6.15;4.90;;;22.20;99.90;;;;;;1914944;75;21156;-74
2022/08/29 02:07:24;;;;;;;5.30;4.80;;;22.20;99.90;;;;;;1880451;75;21176;-74
2022/08/29 02:10:15;;;;;;;4.70;4.30;;;22.20;99.90;;;;;;1912939;75;21167;-74
2022/08/29 02:13:07;;;;;;;6.53;4.83;;;22.20;99.90;;;;;;1890205;75;21172;-74
2022/08/29 02:15:58;;;;;;;9.03;4.42;;;22.20;99.90;;;;;;1902187;75;21243;-74
2022/08/29 02:18:49;;;;;;;5.10;4.70;;;22.20;99.90;;;;;;1897866;75;21075;-74
2022/08/29 02:21:42;;;;;;;4.62;4.22;;;22.10;99.90;;;;;;1916569;74;21058;-74
2022/08/29 02:24:33;;;;;;;6.55;4.58;;;22.10;99.90;;;;;;1894280;75;21150;-74
2022/08/29 02:27:24;;;;;;;5.12;4.62;;;22.00;99.90;;;;;;1895941;75;21122;-75
2022/08/29 02:30:16;;;;;;;4.83;4.40;;;22.00;99.90;;;;;;1914575;74;21118;-75
2022/08/29 02:33:08;;;;;;;6.03;4.95;;;21.90;99.90;;;;;;1894943;75;21101;-75
2022/08/29 02:35:59;;;;;;;6.20;4.60;;;21.80;99.90;;;;;;1896398;73;21106;-75
2022/08/29 02:38:51;;;;;;;5.15;4.60;;;21.60;99.90;;;;;;1887028;75;21482;-76
2022/08/29 02:41:42;;;;;;;4.87;4.47;;;21.40;99.90;;;;;;1902144;75;21058;-77
2022/08/29 02:44:34;;;;;;;6.90;5.10;;;21.40;99.90;;;;;;1898353;75;21054;-77
2022/08/29 02:47:25;;;;;;;4.90;4.50;;;21.40;99.90;;;;;;1889122;75;21137;-76
2022/08/29 02:52:56;;;;;;;5.40;5.00;;;21.40;99.90;;;;;;1935477;72;22132;-77
2022/08/29 02:55:50;;;;;;;5.30;4.87;;;21.50;99.90;;;;;;1894042;75;21189;-77
2022/08/29 02:58:41;;;;;;;5.25;4.78;;;21.50;99.90;;;;;;1891571;75;21055;-76
2022/08/29 03:01:32;;;;;;;5.08;4.28;;;21.50;99.90;;;;;;1888089;75;21137;-77
2022/08/29 03:04:24;;;;;;;5.40;4.90;;;21.60;99.90;;;;;;1861094;76;21201;-76
2022/08/29 03:07:15;;;;;;;5.42;4.90;;;21.50;99.90;;;;;;1894348;75;21114;-76
2022/08/29 03:12:48;;;;;;;5.92;5.10;;;21.50;99.90;;;;;;1945272;72;22342;-75
2022/08/29 03:15:39;;;;;;;4.87;4.47;;;21.50;99.90;;;;;;1890019;74;21156;-75
2022/08/29 03:18:32;;;;;;;4.87;4.30;;;21.50;99.90;;;;;;1902671;75;21127;-78
2022/08/29 03:21:25;;;;;;;5.25;4.83;;;21.40;99.90;;;;;;1902313;75;21192;-80
2022/08/29 03:24:17;;;;;;;5.10;4.70;;;21.40;99.90;;;;;;1885786;75;21083;-76
2022/08/29 03:27:10;;;;;;;5.20;4.75;;;21.40;99.90;;;;;;1896634;75;21135;-75
2022/08/29 03:30:02;;;;;;;4.75;4.35;;;21.40;99.90;;;;;;1890826;75;21160;-75
2022/08/29 03:32:53;;;;;;;5.87;5.25;;;21.40;99.90;;;;;;1893841;75;21055;-75
2022/08/29 03:35:45;;;;;;;6.15;4.70;;;21.40;99.90;;;;;;1905686;75;21459;-75
2022/08/29 03:38:37;;;;;;;5.20;4.70;;;21.40;99.90;;;;;;1895532;75;21068;-78
2022/08/29 03:41:30;;;;;;;5.15;4.70;;;21.40;99.90;;;;;;1893140;75;21615;-76
2022/08/29 03:44:22;;;;;;;5.62;4.67;;;21.40;99.90;;;;;;1886874;75;21063;-76
2022/08/29 03:47:13;;;;;;;4.85;4.28;;;21.30;99.90;;;;;;1887789;75;21199;-76
2022/08/29 03:50:05;;;;;;;6.62;4.65;;;21.30;99.90;;;;;;1905537;74;21047;-80
2022/08/29 03:52:56;;;;;;;6.35;4.55;;;21.30;99.90;;;;;;1900262;75;21092;-77
2022/08/29 03:55:48;;;;;;;4.60;4.20;;;21.30;99.90;;;;;;1905477;75;21194;-76
2022/08/29 03:58:40;;;;;;;5.60;5.10;;;21.20;99.90;;;;;;1884733;75;21115;-76
2022/08/29 04:01:32;;;;;;;7.75;5.30;;;21.20;99.90;;;;;;1892833;75;21130;-76
2022/08/29 04:07:44;;;;;;;4.75;4.35;;;21.20;99.90;;;;;;1905574;75;21047;-75
2022/08/29 04:10:37;;;;;;;5.25;4.75;;;21.20;99.90;;;;;;1899209;75;21157;-78
2022/08/29 04:13:28;;;;;;;5.10;4.62;;;21.20;99.90;;;;;;1909655;74;21158;-78
2022/08/29 04:16:22;;;;;;;5.67;4.90;;;21.20;99.90;;;;;;1906496;74;21105;-78
2022/08/29 04:19:13;;;;;;;5.20;4.70;;;21.20;99.90;;;;;;1910642;74;21545;-76
2022/08/29 04:22:05;;;;;;;5.00;4.50;;;21.20;99.90;;;;;;1905013;74;21051;-74
2022/08/29 04:24:56;;;;;;;5.28;4.78;;;21.20;99.90;;;;;;1909028;74;21086;-74
2022/08/29 04:27:48;;;;;;;5.17;4.78;;;21.20;99.90;;;;;;1923253;74;21095;-74
2022/08/29 04:30:40;;;;;;;5.08;4.58;;;21.20;99.90;;;;;;1924092;74;21078;-75
2022/08/29 04:33:31;;;;;;;5.20;4.70;;;21.20;99.90;;;;;;1900806;74;21073;-75
2022/08/29 04:36:23;;;;;;;4.85;4.42;;;21.20;99.90;;;;;;1905267;74;21119;-75
2022/08/29 04:39:15;;;;;;;5.83;4.42;;;21.10;99.90;;;;;;1900221;74;21112;-74
2022/08/29 04:42:07;;;;;;;4.92;4.53;;;21.10;99.90;;;;;;1909064;74;21093;-75
2022/08/29 04:44:58;;;;;;;5.58;4.87;;;21.10;99.90;;;;;;1924018;74;21038;-74
2022/08/29 04:47:50;;;;;;;4.90;4.45;;;21.00;99.90;;;;;;1919231;74;21172;-76
2022/08/29 04:50:40;;;;;;;4.62;4.22;;;20.90;99.90;;;;;;1911281;74;21132;-78
2022/08/29 04:53:32;;;;;;;5.03;4.62;;;20.90;99.90;;;;;;1918402;74;21155;-79
2022/08/29 04:56:23;;;;;;;4.83;4.25;;;20.90;99.90;;;;;;1919721;74;21097;-76
2022/08/29 05:01:53;;;;;;;8.80;4.72;;;20.80;99.90;;;;;;1946549;72;22110;-73
2022/08/29 05:04:46;;;;;;;5.15;4.67;;;20.80;99.90;;;;;;1897616;74;21138;-72
2022/08/29 05:07:38;;;;;;;4.90;4.37;;;20.90;99.90;;;;;;1891016;75;21131;-72
2022/08/29 05:10:29;;;;;;;5.87;4.40;;;21.00;99.90;;;;;;1890590;75;21617;-72
2022/08/29 05:13:21;;;;;;;5.62;4.80;;;21.00;99.90;;;;;;1890361;75;21084;-74
2022/08/29 05:16:15;;;;;;;6.45;5.17;;;20.90;99.90;;;;;;1906377;75;21059;-72
2022/08/29 05:19:08;;;;;;;5.35;4.85;;;21.00;99.90;;;;;;1899411;75;21106;-72
2022/08/29 05:21:59;;;;;;;6.03;4.92;;;20.90;99.90;;;;;;1913064;75;21117;-75
2022/08/29 05:24:52;;;;;;;5.35;4.85;;;20.90;99.90;;;;;;1896400;75;21681;-75
2022/08/29 05:27:43;;;;;;;5.22;4.75;;;21.00;99.90;;;;;;1899994;75;21143;-80
2022/08/29 05:30:37;;;;;;;7.95;4.60;;;20.90;99.90;;;;;;1903592;75;21881;-75
2022/08/29 05:33:29;;;;;;;5.87;5.25;;;20.90;99.90;;;;;;1899370;75;21581;-75
2022/08/29 05:36:28;;;;;;;5.40;4.65;;;21.00;99.90;;;;;;1914231;75;21098;-76
2022/08/29 05:39:37;;;;;;;6.30;5.37;;;21.00;99.90;;;;;;1886670;75;21164;-75
2022/08/29 05:42:31;;;;;;;6.97;4.95;;;20.90;99.90;;;;;;1884615;75;21130;-76
2022/08/29 05:45:23;;;;;;;6.83;4.92;;;20.90;99.90;;;;;;1899918;75;21091;-82
2022/08/29 05:48:16;;;;;;;8.18;4.72;;;20.90;99.90;;;;;;1891482;75;21102;-73
2022/08/29 05:51:08;;;;;;;5.45;4.95;;;20.90;99.90;;;;;;1894188;75;21187;-73
2022/08/29 05:53:59;;;;;;;8.10;5.47;;;20.90;99.90;;;;;;1907786;74;21124;-73
2022/08/29 05:56:50;;;;;;;7.15;5.50;;;20.90;99.90;;;;;;1901086;75;21571;-73
2022/08/29 05:59:42;;;;;;;6.83;5.80;;;20.90;99.90;;;;;;1906704;74;21121;-74
2022/08/29 06:02:35;;;;;;;6.45;5.22;;;21.00;99.90;;;;;;1919380;74;21171;-74
2022/08/29 06:05:26;;;;;;;6.42;4.90;;;21.00;99.90;;;;;;1911993;74;21080;-75
2022/08/29 06:08:18;;;;;;;5.45;4.80;;;21.00;99.90;;;;;;1869571;76;21054;-75
2022/08/29 06:13:54;;;;;;;6.72;4.90;;;21.20;99.90;;;;;;1946424;72;22129;-74
2022/08/29 06:16:45;;;;;;;7.70;4.92;;;21.30;99.90;;;;;;1893556;75;21188;-74
2022/08/29 06:19:38;;;;;;;5.33;4.92;;;21.20;99.90;;;;;;1892573;75;21560;-74
2022/08/29 06:22:29;;;;;;;9.33;5.30;;;21.30;99.90;;;;;;1893677;75;21161;-75
2022/08/29 06:25:21;;;;;;;7.62;5.05;;;21.20;99.90;;;;;;1895343;75;21106;-75
2022/08/29 06:28:14;;;;;;;5.78;5.30;;;21.30;99.90;;;;;;1898611;75;21146;-75
2022/08/29 06:31:16;;;;;;;6.80;5.08;;;21.40;99.90;;;;;;1897416;75;21110;-75
2022/08/29 06:34:09;;;;;;;5.80;5.20;;;21.40;99.90;;;;;;1906454;75;21164;-75
2022/08/29 06:37:13;;;;;;;6.45;4.92;;;21.50;99.90;;;;;;1898884;75;21104;-82
2022/08/29 06:40:05;;;;;;;7.25;5.45;;;21.60;99.90;;;;;;1896476;75;21143;-80
2022/08/29 06:42:57;;;;;;;6.78;5.30;;;21.60;99.90;;;;;;1898309;75;21059;-81
2022/08/29 06:45:48;;;;;;;6.60;5.17;;;21.60;99.90;;;;;;1897551;75;21082;-81
2022/08/29 06:48:40;;;;;;;6.60;5.22;;;21.60;99.90;;;;;;1909101;75;21129;-80
2022/08/29 06:51:33;;;;;;;7.35;5.53;;;21.70;99.90;;;;;;1902057;75;21158;-81
2022/08/29 06:54:27;;;;;;;8.20;6.28;;;21.80;99.90;;;;;;1861892;76;21079;-84
2022/08/29 06:57:18;;;;;;;23.30;20.82;;;21.80;99.90;;;;;;1898970;75;21565;-80
2022/08/29 07:00:14;;;;;;;9.00;6.53;;;21.90;99.90;;;;;;1899154;75;21119;-83
2022/08/29 07:03:08;;;;;;;5.45;4.95;;;22.00;99.90;;;;;;1883121;75;21172;-82
2022/08/29 07:06:09;;;;;;;6.97;5.78;;;22.00;99.90;;;;;;1903549;75;21047;-78
2022/08/29 07:09:01;;;;;;;5.85;5.25;;;22.10;99.90;;;;;;1906842;75;21139;-78
2022/08/29 07:14:33;;;;;;;5.80;5.03;;;22.10;99.90;;;;;;1935217;72;22158;-77
2022/08/29 07:17:24;;;;;;;7.78;5.20;;;22.10;99.90;;;;;;1909369;75;21034;-78
2022/08/29 07:20:30;;;;;;;6.92;5.47;;;22.20;99.90;;;;;;1910255;75;21106;-77
2022/08/29 07:23:39;;;;;;;8.30;4.80;;;22.30;99.90;;;;;;1911727;75;21105;-78
2022/08/29 07:26:37;;;;;;;5.62;5.10;;;22.40;99.90;;;;;;1904974;75;21170;-79
2022/08/29 07:29:28;;;;;;;5.37;4.87;;;22.50;99.90;;;;;;1912996;75;21209;-80
2022/08/29 07:32:20;;;;;;;5.78;5.20;;;22.60;99.90;;;;;;1907914;75;21175;-77
2022/08/29 07:35:13;;;;;;;5.80;5.17;;;22.60;99.90;;;;;;1897444;74;21117;-83
2022/08/29 07:38:06;;;;;;;7.17;5.00;;;22.70;99.90;;;;;;1916889;75;21124;-84
2022/08/29 07:41:02;;;;;;;5.72;4.87;;;22.70;99.90;;;;;;1896734;75;21051;-83
2022/08/29 07:44:01;;;;;;;6.17;4.80;;;22.80;99.90;;;;;;1913573;75;21058;-83
2022/08/29 07:46:56;;;;;;;5.28;4.58;;;22.90;99.90;;;;;;1900169;74;21150;-86
2022/08/29 07:49:55;;;;;;;124.22;112.05;;;22.90;99.90;;;;;;1887967;75;21115;-76
2022/08/29 07:52:59;;;;;;;10.28;8.58;;;23.00;99.90;;;;;;1916094;75;21089;-75
2022/08/29 07:55:50;;;;;;;5.20;4.70;;;23.20;99.90;;;;;;1903310;75;21108;-76
2022/08/29 07:58:41;;;;;;;5.45;4.70;;;23.30;99.90;;;;;;1909164;75;21055;-76
2022/08/29 08:01:41;;;;;;;8.10;5.00;;;23.30;99.90;;;;;;1903807;74;21612;-75
2022/08/29 08:04:46;;;;;;;6.62;5.05;;;23.40;99.90;;;;;;1909988;75;21148;-75
2022/08/29 08:07:39;;;;;;;5.53;4.78;;;23.40;99.90;;;;;;1915322;75;21058;-78
2022/08/29 08:10:31;;;;;;;4.35;3.95;;;23.50;99.90;;;;;;1888245;75;21118;-78
2022/08/29 08:13:23;;;;;;;7.30;4.50;;;23.60;99.90;;;;;;1894680;75;21259;-80
2022/08/29 08:16:17;;;;;;;9.18;8.13;;;23.70;99.90;;;;;;1908128;74;21106;-89
2022/08/29 08:19:09;;;;;;;5.72;5.12;;;23.70;99.90;;;;;;1915154;74;21050;-77
2022/08/29 08:22:01;;;;;;;5.00;4.58;;;23.70;99.90;;;;;;1850324;77;21098;-76
2022/08/29 08:24:54;;;;;;;9.23;4.90;;;23.80;99.90;;;;;;1847760;77;21090;-76
2022/08/29 08:27:45;;;;;;;5.95;5.00;;;23.90;99.90;;;;;;1917233;74;21120;-77
2022/08/29 08:30:37;;;;;;;6.72;4.70;;;24.00;99.90;;;;;;1866125;76;21406;-75
2022/08/29 08:33:29;;;;;;;5.50;5.00;;;24.10;99.90;;;;;;1929145;74;21163;-75
2022/08/29 08:36:23;;;;;;;7.78;4.28;;;24.20;99.90;;;;;;1882095;76;21154;-74
2022/08/29 08:39:15;;;;;;;5.70;4.95;;;24.20;99.90;;;;;;1916446;74;21513;-74
2022/08/29 08:42:16;;;;;;;6.35;4.70;;;24.30;99.90;;;;;;1879165;76;21581;-73
2022/08/29 08:45:18;;;;;;;6.45;5.03;;;24.40;99.90;;;;;;1926457;73;21183;-75
2022/08/29 08:48:14;;;;;;;6.12;5.12;;;24.50;99.90;;;;;;1878077;76;21113;-73
2022/08/29 08:51:12;;;;;;;7.62;4.60;;;24.50;99.90;;;;;;1918724;74;21105;-74
2022/08/29 08:54:14;;;;;;;6.20;5.17;;;24.50;99.90;;;;;;1916648;74;21227;-73
2022/08/29 08:57:08;;;;;;;5.55;5.05;;;24.60;99.90;;;;;;1871356;71;21084;-74
2022/08/29 09:00:11;;;;;;;6.80;4.90;;;24.70;99.90;;;;;;1868914;75;21063;-74
2022/08/29 09:03:07;;;;;;;5.42;4.92;;;24.70;99.90;;;;;;1860606;77;21068;-74
2022/08/29 09:06:07;;;;;;;5.92;4.67;;;24.80;99.90;;;;;;1860671;75;21636;-74
2022/08/29 09:09:02;;;;;;;5.67;5.17;;;24.90;99.90;;;;;;1855863;76;21523;-73
2022/08/29 09:12:01;;;;;;;6.40;5.10;;;24.90;99.90;;;;;;1883749;75;21578;-74
2022/08/29 09:17:40;;;;;;;5.70;5.08;;;25.10;99.90;;;;;;1941434;72;22159;-73
2022/08/29 09:20:36;;;;;;;7.17;5.57;;;25.10;99.90;;;;;;1898420;74;21164;-73
2022/08/29 09:23:38;;;;;;;5.55;4.97;;;25.10;99.90;;;;;;1894001;74;21391;-73
2022/08/29 09:26:30;;;;;;;7.50;5.28;;;25.20;99.90;;;;;;1918852;74;21174;-73
2022/08/29 09:32:11;;;;;;;5.97;5.15;;;25.40;99.90;;;;;;1937219;72;22166;-73
2022/08/29 09:35:23;;;;;;;5.17;4.67;;;25.50;99.90;;;;;;1917695;74;21160;-73
2022/08/29 09:38:23;;;;;;;5.62;5.12;;;25.60;99.90;;;;;;1896222;75;21168;-73
2022/08/29 09:41:19;;;;;;;5.53;4.90;;;25.70;99.90;;;;;;1911646;74;21087;-73
2022/08/29 09:47:04;;;;;;;5.67;4.83;;;25.90;99.90;;;;;;1924330;72;22204;-73
2022/08/29 09:50:12;;;;;;;5.20;4.80;;;26.00;99.90;;;;;;1903956;74;21127;-74
2022/08/29 09:53:05;;;;;;;5.62;4.80;;;26.00;99.90;;;;;;1877741;75;21109;-74
2022/08/29 09:56:01;;;;;;;8.18;4.90;;;26.10;99.90;;;;;;1908868;74;21053;-74
2022/08/29 09:59:03;;;;;;;5.92;4.78;;;26.20;99.90;;;;;;1887516;75;21188;-73
2022/08/29 10:02:23;;;;;;;4.75;4.25;;;26.30;99.90;;;;;;1913378;74;21066;-74
2022/08/29 10:05:40;;;;;;;5.83;4.67;;;26.40;99.90;;;;;;1917655;74;21054;-74
2022/08/29 10:08:33;;;;;;;5.80;4.78;;;26.50;99.90;;;;;;1905484;74;21135;-75
2022/08/29 10:11:36;;;;;;;6.42;4.85;;;26.60;99.90;;;;;;1915566;74;21510;-73
2022/08/29 10:14:31;;;;;;;6.10;5.20;;;26.70;99.90;;;;;;1916732;74;21130;-74
2022/08/29 10:20:46;;;;;;;6.05;4.70;;;26.80;99.90;;;;;;1903173;74;21533;-74
2022/08/29 10:26:54;;;;;;;5.15;4.75;;;26.90;99.90;;;;;;1938069;72;22289;-73
2022/08/29 10:32:53;;;;;;;5.42;4.80;;;27.10;99.90;;;;;;1947094;72;22138;-73
2022/08/29 10:35:49;;;;;;;5.87;5.30;;;27.20;99.90;;;;;;1902435;75;21103;-73
2022/08/29 10:38:50;;;;;;;5.67;5.17;;;27.30;99.90;;;;;;1896012;75;21559;-73
2022/08/29 10:41:57;;;;;;;6.08;5.42;;;27.40;99.90;;;;;;1897365;75;21183;-75
2022/08/29 10:44:59;;;;;;;5.83;5.33;;;27.60;99.90;;;;;;1909137;75;21090;-74
2022/08/29 10:47:54;;;;;;;6.03;4.90;;;27.70;99.90;;;;;;1912029;75;21128;-74
2022/08/29 10:50:49;;;;;;;5.17;4.67;;;27.70;99.90;;;;;;1905889;75;21121;-74
2022/08/29 10:53:43;;;;;;;5.72;5.22;;;27.70;99.90;;;;;;1898233;75;21047;-74
2022/08/29 10:56:38;;;;;;;5.37;4.87;;;27.70;99.90;;;;;;1914463;75;21235;-74
2022/08/29 10:59:33;;;;;;;5.97;5.15;;;27.70;99.90;;;;;;1896510;75;21102;-74
2022/08/29 11:02:29;;;;;;;5.50;4.90;;;27.60;99.90;;;;;;1912533;75;21067;-74
2022/08/29 11:05:24;;;;;;;4.97;4.50;;;27.80;99.90;;;;;;1897242;75;21109;-74
2022/08/29 11:08:19;;;;;;;7.33;4.78;;;27.80;99.90;;;;;;1900290;74;21132;-73
2022/08/29 11:11:16;;;;;;;5.47;4.97;;;28.00;99.90;;;;;;1903603;75;21202;-74
2022/08/29 11:14:22;;;;;;;6.22;4.87;;;28.10;99.90;;;;;;1909677;74;21051;-74
2022/08/29 11:17:16;;;;;;;5.90;5.30;;;28.40;99.90;;;;;;1911147;75;21097;-73
2022/08/29 11:22:51;;;;;;;6.35;4.95;;;28.60;99.90;;;;;;1943728;72;22256;-73
2022/08/29 11:25:43;;;;;;;5.25;4.60;;;28.80;99.90;;;;;;1921086;73;21514;-74
2022/08/29 11:28:39;;;;;;;4.90;4.50;;;28.80;99.90;;;;;;1917649;75;21070;-74
2022/08/29 11:31:40;;;;;;;4.65;4.20;;;29.00;99.90;;;;;;1928669;73;21116;-74
2022/08/29 11:37:29;;;;;;;4.35;3.95;;;28.90;99.90;;;;;;1950596;72;22182;-74
2022/08/29 11:40:34;;;;;;;4.10;3.67;;;29.00;99.90;;;;;;1901664;75;21627;-75
2022/08/29 11:46:33;;;;;;;3.80;3.50;;;29.10;99.90;;;;;;1951809;72;22263;-74
2022/08/29 11:49:36;;;;;;;4.10;3.70;;;29.30;99.90;;;;;;1934832;73;21090;-74
2022/08/29 11:52:35;;;;;;;4.28;3.92;;;29.40;99.90;;;;;;1933241;73;21061;-73
2022/08/29 11:55:40;;;;;;;4.47;4.08;;;29.50;99.90;;;;;;1921961;73;21197;-74
2022/08/29 11:58:46;;;;;;;4.45;3.72;;;29.60;99.90;;;;;;1935582;73;21063;-74
2022/08/29 12:02:00;;;;;;;4.42;4.03;;;29.70;99.90;;;;;;1930233;73;21575;-74
2022/08/29 12:07:38;;;;;;;4.12;3.83;;;29.90;99.90;;;;;;1926777;72;22242;-74
2022/08/29 12:10:32;;;;;;;5.00;4.53;;;30.00;99.90;;;;;;1905195;74;21059;-74
2022/08/29 12:16:51;;;;;;;4.95;3.87;;;30.20;99.90;;;;;;1921253;72;22149;-73
2022/08/29 12:22:50;;;;;;;4.80;4.22;;;30.30;99.90;;;;;;1941185;72;22638;-83
2022/08/29 12:25:48;;;;;;;3.83;3.52;;;30.40;99.90;;;;;;1903333;75;21103;-74
2022/08/29 12:28:51;;;;;;;8.30;3.55;;;30.40;99.90;;;;;;1892216;75;21179;-74
2022/08/29 12:31:51;;;;;;;5.47;3.15;;;30.50;99.90;;;;;;1886471;75;21059;-73
2022/08/29 12:37:50;;;;;;;4.70;2.95;;;30.80;98.30;;;;;;1926299;72;22554;-74
2022/08/29 12:40:52;;;;;;;5.33;3.37;;;30.70;97.20;;;;;;1897089;75;21059;-74
2022/08/29 12:43:46;;;;;;;4.50;2.95;;;30.80;96.00;;;;;;1892179;75;21168;-75
2022/08/29 12:49:23;;;;;;;2.67;2.27;;;30.80;94.20;;;;;;1943883;72;22355;-75
2022/08/29 12:52:26;;;;;;;3.15;1.95;;;30.90;92.50;;;;;;1910110;75;21104;-75
2022/08/29 12:55:27;;;;;;;2.90;2.10;;;31.00;91.00;;;;;;1902198;75;21526;-75
2022/08/29 12:58:40;;;;;;;2.30;1.87;;;31.20;87.60;;;;;;1897040;75;21055;-75
2022/08/29 13:01:36;;;;;;;2.08;1.67;;;31.30;86.70;;;;;;1900268;75;21705;-74
2022/08/29 13:04:31;;;;;;;2.60;1.70;;;31.20;80.30;;;;;;1913514;75;21572;-75
2022/08/29 13:07:23;;;;;;;3.92;1.80;;;31.40;76.80;;;;;;1887839;74;21113;-75
2022/08/29 13:10:19;;;;;;;2.00;1.77;;;31.40;76.20;;;;;;1913009;74;21177;-75
2022/08/29 13:13:22;;;;;;;2.72;1.87;;;31.50;77.40;;;;;;1898410;74;21117;-74
2022/08/29 13:16:24;;;;;;;2.02;1.92;;;31.60;75.60;;;;;;1893493;75;21074;-74
2022/08/29 13:19:23;;;;;;;5.25;2.10;;;31.60;77.40;;;;;;1888768;75;21088;-75
2022/08/29 13:22:15;;;;;;;3.15;2.27;;;31.80;77.70;;;;;;1891252;75;21043;-78
2022/08/29 13:25:07;;;;;;;2.50;1.90;;;31.90;77.90;;;;;;1906408;75;21227;-82
2022/08/29 13:28:00;;;;;;;2.95;2.30;;;31.90;75.90;;;;;;1894373;74;21154;-81
2022/08/29 13:31:34;;;;;;;2.95;2.17;;;32.00;76.50;;;;;;1896771;73;21191;-81
2022/08/29 13:34:28;;;;;;;3.50;2.35;;;32.10;75.60;;;;;;1895295;75;21078;-80
2022/08/29 13:37:31;;;;;;;2.33;2.12;;;32.20;75.40;;;;;;1900185;75;21126;-82
2022/08/29 13:40:35;;;;;;;2.47;2.10;;;32.20;73.90;;;;;;1894530;75;21106;-88
2022/08/29 13:43:43;;;;;;;4.03;2.30;;;32.30;74.70;;;;;;1907468;75;21103;-82
2022/08/29 13:46:36;;;;;;;2.42;2.20;;;32.20;71.90;;;;;;1903715;75;21557;-80
2022/08/29 13:49:29;;;;;;;2.20;1.80;;;32.30;73.30;;;;;;1923178;74;21124;-80
2022/08/29 13:52:21;;;;;;;2.42;2.20;;;32.40;72.50;;;;;;1874067;76;21492;-81
2022/08/29 13:57:57;;;;;;;4.95;2.40;;;32.60;71.80;;;;;;1939144;72;22591;-79
2022/08/29 14:03:29;;;;;;;3.83;2.17;;;32.80;71.00;;;;;;1934290;72;22130;-80
2022/08/29 14:06:31;;;;;;;2.25;2.10;;;32.80;70.40;;;;;;1938094;73;21030;-80
2022/08/29 14:09:30;;;;;;;2.83;2.00;;;32.80;69.90;;;;;;1938171;73;21038;-80
2022/08/29 14:12:21;;;;;;;3.10;2.20;;;32.90;70.00;;;;;;1934176;73;21107;-81
2022/08/29 14:17:55;;;;;;;2.55;1.90;;;33.30;69.60;;;;;;1941941;72;22631;-79
2022/08/29 14:20:53;;;;;;;2.40;1.92;;;33.60;68.30;;;;;;1894095;75;21070;-81
2022/08/29 14:23:57;;;;;;;2.30;2.10;;;33.70;67.60;;;;;;1830114;76;21134;-81
2022/08/29 14:26:49;;;;;;;2.40;2.20;;;33.70;68.00;;;;;;1897579;75;21162;-81
2022/08/29 14:29:42;;;;;;;2.87;2.40;;;33.90;68.80;;;;;;1877663;76;21176;-82
2022/08/29 14:32:34;;;;;;;2.58;2.37;;;34.10;67.80;;;;;;1877551;76;21070;-81
2022/08/29 14:35:34;;;;;;;2.22;2.02;;;34.20;67.50;;;;;;1889044;75;21492;-81
2022/08/29 14:38:30;;;;;;;2.60;2.40;;;34.50;66.90;;;;;;1891246;75;21062;-81
2022/08/29 14:41:29;;;;;;;3.40;2.42;;;34.90;66.80;;;;;;1887818;75;21495;-81
2022/08/29 14:47:01;;;;;;;3.02;2.77;;;35.50;65.10;;;;;;1938235;72;22150;-80
2022/08/29 14:49:52;;;;;;;2.85;2.60;;;35.80;64.30;;;;;;1898363;75;21124;-79
2022/08/29 14:52:44;;;;;;;3.58;2.40;;;35.90;63.80;;;;;;1899017;75;21184;-80
2022/08/29 14:55:35;;;;;;;2.90;2.60;;;36.00;63.10;;;;;;1897688;75;21050;-77
2022/08/29 14:58:26;;;;;;;2.77;2.33;;;36.10;63.20;;;;;;1895833;75;21120;-78
2022/08/29 15:01:18;;;;;;;2.42;2.30;;;36.10;62.30;;;;;;1898609;75;21385;-77
2022/08/29 15:04:25;;;;;;;3.02;2.55;;;36.40;61.90;;;;;;1898671;75;21059;-78
2022/08/29 15:07:18;;;;;;;4.70;2.45;;;36.70;62.10;;;;;;1897241;75;21102;-78
2022/08/29 15:12:49;;;;;;;3.75;2.70;;;36.90;60.80;;;;;;1945600;72;22680;-78
2022/08/29 15:18:24;;;;;;;2.77;2.58;;;36.60;60.30;;;;;;1958573;72;22178;-81
2022/08/29 15:21:18;;;;;;;3.00;2.37;;;36.70;60.00;;;;;;1927458;73;21176;-84
2022/08/29 15:24:14;;;;;;;5.62;2.87;;;36.90;60.30;;;;;;1921277;73;21058;-81
2022/08/29 15:27:17;;;;;;;4.35;2.72;;;37.10;60.20;;;;;;1925317;73;21106;-82
2022/08/29 15:30:11;;;;;;;3.00;2.67;;;36.80;60.10;;;;;;1919685;73;21235;-82
2022/08/29 15:33:02;;;;;;;4.05;2.77;;;36.50;59.80;;;;;;1917694;73;21251;-76
2022/08/29 15:36:00;;;;;;;3.22;2.90;;;36.40;60.60;;;;;;1928301;73;21114;-76
2022/08/29 15:39:08;;;;;;;5.42;2.90;;;36.30;60.40;;;;;;1918555;73;21089;-75
2022/08/29 15:42:01;;;;;;;3.20;2.90;;;36.40;59.80;;;;;;1917965;73;21055;-75
2022/08/29 15:44:53;;;;;;;3.00;2.80;;;36.20;60.10;;;;;;1917474;75;21059;-74
2022/08/29 15:47:50;;;;;;;6.78;3.22;;;36.30;60.50;;;;;;1924559;73;21048;-74
2022/08/29 15:50:54;;;;;;;3.02;2.80;;;36.80;60.80;;;;;;1929767;73;21110;-75
2022/08/29 15:53:57;;;;;;;2.90;2.70;;;37.10;60.20;;;;;;1919330;73;21123;-74
2022/08/29 15:56:49;;;;;;;53.25;48.15;;;36.80;58.50;;;;;;1928100;73;21119;-87
2022/08/29 15:59:40;;;;;;;4.30;2.75;;;36.90;59.30;;;;;;1926474;73;21121;-77
2022/08/29 16:02:33;;;;;;;3.30;3.00;;;36.90;59.70;;;;;;1926486;73;21224;-77
2022/08/29 16:05:25;;;;;;;2.60;2.40;;;36.60;60.70;;;;;;1926541;73;21474;-77
2022/08/29 16:08:16;;;;;;;3.20;2.90;;;36.50;60.20;;;;;;1929741;73;21034;-77
2022/08/29 16:14:00;;;;;;;3.50;3.20;;;36.50;61.40;;;;;;1944396;72;22158;-76
2022/08/29 16:16:53;;;;;;;3.52;2.80;;;36.60;61.20;;;;;;1923133;72;21164;-75
2022/08/29 16:19:46;;;;;;;3.40;3.10;;;36.60;61.50;;;;;;1915918;72;21104;-75
2022/08/29 16:22:45;;;;;;;4.00;3.10;;;36.80;60.70;;;;;;1906126;74;21147;-74
2022/08/29 16:25:37;;;;;;;3.05;2.85;;;36.40;61.30;;;;;;1915116;74;21148;-73
2022/08/29 16:28:32;;;;;;;3.17;2.98;;;36.10;61.80;;;;;;1911296;74;21543;-75
2022/08/29 16:31:24;;;;;;;3.60;3.27;;;35.90;61.90;;;;;;1916008;74;21568;-76
2022/08/29 16:34:15;;;;;;;3.52;3.30;;;36.10;62.60;;;;;;1912608;74;21034;-76